Time;durP1;ratioP1;P1;durP2;ratioP2;P2;SDS_P1;SDS_P2;PMS_P1;PMS_P2;Temp;Humidity;BMP_temperature;BMP_pressure;BME280_temperature;BME280_humidity;BME280_pressure;Samples;Min_cycle;Max_cycle;Signal;HPM_P1;HPM_P2
2022/01/13 00:01:54;;;;;;;30.53;6.93;;;;;;;-10.94;88.65;144969.94;1795429;79;21597;-61
2022/01/13 00:04:21;;;;;;;14.10;5.00;;;;;;;-10.90;88.53;144977.58;1800250;79;21132;-62
2022/01/13 00:06:48;;;;;;;17.73;7.13;;;;;;;-10.87;88.54;144985.22;1788247;79;21459;-62
2022/01/13 00:09:16;;;;;;;35.90;11.10;;;;;;;-10.83;88.49;144995.41;1792092;79;21030;-62
2022/01/13 00:11:45;;;;;;;27.00;9.93;;;;;;;-10.79;88.50;145005.59;1788619;79;20958;-61
2022/01/13 00:19:45;;;;;;;34.97;11.20;;;;;;;-10.65;87.95;145041.31;1788819;79;21138;-61
2022/01/13 00:22:29;;;;;;;28.83;8.83;;;;;;;-10.61;87.71;145048.95;1792329;79;21076;-61
2022/01/13 00:24:53;;;;;;;29.17;10.40;;;;;;;-10.60;87.39;145051.50;1790467;78;21077;-62
2022/01/13 00:27:20;;;;;;;43.97;12.50;;;;;;;-10.60;87.22;145051.50;1792204;78;21069;-58
2022/01/13 00:29:47;;;;;;;22.73;7.47;;;;;;;-10.60;87.30;145052.80;1792995;79;21548;-57
2022/01/13 00:32:15;;;;;;;20.57;6.07;;;;;;;-10.61;87.69;145048.95;1794302;79;21101;-57
2022/01/13 00:34:43;;;;;;;21.73;6.57;;;;;;;-10.60;88.05;145051.50;1797497;78;21067;-56
2022/01/13 00:37:11;;;;;;;11.73;5.23;;;;;;;-10.59;88.15;145054.05;1791929;79;21180;-61
2022/01/13 00:39:38;;;;;;;15.93;5.63;;;;;;;-10.57;88.28;145059.14;1798280;79;20998;-57
2022/01/13 00:42:06;;;;;;;16.07;5.30;;;;;;;-10.57;88.15;145059.14;1797448;79;21315;-57
2022/01/13 00:44:38;;;;;;;13.47;4.80;;;;;;;-10.57;88.09;145059.14;1793532;79;21476;-62
2022/01/13 00:47:10;;;;;;;13.87;5.60;;;;;;;-10.61;87.92;145050.25;1798810;79;21027;-61
2022/01/13 00:49:37;;;;;;;12.73;4.63;;;;;;;-10.61;87.92;145048.95;1773530;79;21179;-57
2022/01/13 00:52:04;;;;;;;11.67;5.80;;;;;;;-10.62;87.85;145046.41;1779453;80;21085;-61
2022/01/13 00:54:34;;;;;;;16.80;5.23;;;;;;;-10.63;87.74;145043.86;1778780;79;21102;-62
2022/01/13 00:57:05;;;;;;;12.90;5.30;;;;;;;-10.65;87.73;145041.31;1774663;80;21148;-61
2022/01/13 00:59:32;;;;;;;16.67;5.50;;;;;;;-10.63;87.71;145043.86;1776698;79;21129;-61
2022/01/13 01:01:59;;;;;;;19.93;5.33;;;;;;;-10.64;87.66;145042.56;1780546;80;21012;-61
2022/01/13 01:04:27;;;;;;;14.93;4.80;;;;;;;-10.62;87.79;145046.41;1778980;79;20916;-61
2022/01/13 01:06:54;;;;;;;14.37;5.27;;;;;;;-10.61;87.75;145048.95;1778438;80;21036;-61
2022/01/13 01:09:35;;;;;;;18.37;4.87;;;;;;;-10.61;87.71;145050.25;1779530;80;21436;-63
2022/01/13 01:11:52;;;;;;;21.90;6.00;;;;;;;-10.63;87.85;145045.11;1772144;79;21530;-58
2022/01/13 01:14:21;;;;;;;11.03;4.93;;;;;;;-10.65;87.81;145040.02;1779666;79;21431;-58
2022/01/13 01:16:48;;;;;;;14.17;4.83;;;;;;;-10.66;88.05;145037.47;1773299;80;21043;-57
2022/01/13 01:19:25;;;;;;;13.77;4.87;;;;;;;-10.66;88.14;145038.77;1775974;80;21003;-58
2022/01/13 01:26:53;;;;;;;14.17;5.40;;;;;;;-10.70;88.28;145028.56;1778869;79;21030;-62
2022/01/13 01:29:26;;;;;;;9.03;3.70;;;;;;;-10.70;88.32;145028.56;1776340;79;21114;-57
2022/01/13 01:31:53;;;;;;;17.70;5.13;;;;;;;-10.71;88.39;145024.72;1775573;80;21651;-57
2022/01/13 01:37:03;;;;;;;15.20;4.73;;;;;;;-10.74;88.69;145018.33;1751406;80;21034;-62
2022/01/13 01:39:30;;;;;;;18.83;5.90;;;;;;;-10.76;88.91;145012.00;1783690;79;21012;-61
2022/01/13 01:41:57;;;;;;;9.67;4.40;;;;;;;-10.78;88.86;145008.14;1779226;79;22177;-58
2022/01/13 01:44:32;;;;;;;14.90;4.90;;;;;;;-10.79;88.94;145005.59;1775020;79;20994;-58
2022/01/13 01:47:00;;;;;;;17.30;5.25;;;;;;;-10.79;89.02;145005.59;1773210;80;21355;-58
2022/01/13 01:49:27;;;;;;;14.80;5.90;;;;;;;-10.81;89.16;145001.80;1777009;79;20963;-58
2022/01/13 01:51:59;;;;;;;21.23;7.03;;;;;;;-10.82;89.34;144997.95;1776070;79;20938;-61
2022/01/13 01:54:29;;;;;;;39.47;8.30;;;;;;;-10.85;89.23;144990.31;1778163;80;21039;-59
2022/01/13 01:56:56;;;;;;;28.33;10.00;;;;;;;-10.87;89.31;144985.22;1775012;80;21057;-61
2022/01/13 01:59:27;;;;;;;28.17;10.30;;;;;;;-10.88;89.35;144982.67;1778504;80;21138;-62
2022/01/13 02:01:53;;;;;;;27.50;8.97;;;;;;;-10.90;89.26;144977.58;1776470;80;21044;-57
2022/01/13 02:04:21;;;;;;;27.87;9.80;;;;;;;-10.92;89.45;144972.48;1780484;80;20974;-62
2022/01/13 02:06:49;;;;;;;45.20;12.60;;;;;;;-10.92;89.57;144972.48;1777609;79;21972;-61
2022/01/13 02:09:17;;;;;;;32.40;11.40;;;;;;;-10.94;89.60;144969.94;1780072;80;21082;-57
2022/01/13 02:11:48;;;;;;;24.17;7.87;;;;;;;-10.94;89.70;144968.64;1777847;79;21467;-58
2022/01/13 02:16:51;;;;;;;28.13;8.67;;;;;;;-10.94;89.90;144969.94;1778612;79;21545;-61
2022/01/13 02:19:18;;;;;;;29.63;9.00;;;;;;;-10.92;89.97;144972.48;1774965;80;21089;-57
2022/01/13 02:21:46;;;;;;;34.87;13.13;;;;;;;-10.91;90.20;144975.03;1776486;79;21029;-58
2022/01/13 02:24:13;;;;;;;29.90;10.10;;;;;;;-10.94;90.28;144969.94;1780771;79;21838;-57
2022/01/13 02:26:40;;;;;;;19.40;6.43;;;;;;;-10.92;90.37;144972.48;1772893;80;21057;-57
2022/01/13 02:29:08;;;;;;;18.40;6.80;;;;;;;-10.92;90.68;144972.48;1780126;79;21022;-57
2022/01/13 02:31:36;;;;;;;24.23;7.57;;;;;;;-10.91;90.86;144976.28;1777209;80;21081;-58
2022/01/13 02:34:03;;;;;;;28.70;10.23;;;;;;;-10.92;90.84;144973.73;1782880;80;21078;-62
2022/01/13 02:36:31;;;;;;;23.20;8.43;;;;;;;-10.91;90.67;144976.28;1776796;80;21115;-58
2022/01/13 02:38:58;;;;;;;24.57;8.90;;;;;;;-10.91;90.72;144975.03;1775604;80;21125;-57
2022/01/13 02:41:25;;;;;;;23.43;8.37;;;;;;;-10.90;90.77;144978.83;1779510;80;21067;-58
2022/01/13 02:43:54;;;;;;;24.67;8.93;;;;;;;-10.89;90.67;144981.38;1780277;80;20967;-61
2022/01/13 02:49:04;;;;;;;21.50;6.60;;;;;;;-10.87;90.66;144985.22;1774221;80;21394;-61
2022/01/13 02:51:32;;;;;;;13.70;5.53;;;;;;;-10.86;90.67;144989.02;1779843;79;21104;-61
2022/01/13 02:54:03;;;;;;;26.17;8.93;;;;;;;-10.87;90.62;144985.22;1782187;78;21000;-61
2022/01/13 02:56:31;;;;;;;35.07;11.40;;;;;;;-10.88;90.56;144982.67;1782271;80;21308;-58
2022/01/13 02:58:59;;;;;;;37.67;10.00;;;;;;;-10.88;90.54;144982.67;1779746;79;21119;-57
2022/01/13 03:01:26;;;;;;;29.13;10.67;;;;;;;-10.88;90.51;144982.67;1778745;80;21454;-62
2022/01/13 03:03:53;;;;;;;32.30;10.23;;;;;;;-10.87;90.40;144986.47;1777701;80;21015;-58
2022/01/13 03:06:27;;;;;;;34.30;11.40;;;;;;;-10.89;90.20;144981.38;1778351;80;20994;-58
2022/01/13 03:08:53;;;;;;;35.27;11.00;;;;;;;-10.88;90.16;144983.92;1778185;80;20996;-62
2022/01/13 03:11:22;;;;;;;33.23;11.80;;;;;;;-10.89;90.28;144980.13;1782855;80;21625;-62
2022/01/13 03:13:48;;;;;;;31.33;11.70;;;;;;;-10.90;90.29;144977.58;1782039;80;21140;-58
2022/01/13 03:16:16;;;;;;;34.90;13.23;;;;;;;-10.91;90.47;144976.28;1746049;82;20959;-58
2022/01/13 03:18:42;;;;;;;34.33;11.90;;;;;;;-10.90;90.53;144977.58;1777475;80;20952;-58
2022/01/13 03:21:10;;;;;;;36.60;10.80;;;;;;;-10.90;90.41;144977.58;1777879;79;21018;-57
2022/01/13 03:23:38;;;;;;;27.73;10.17;;;;;;;-10.88;90.38;144982.67;1777663;80;21024;-57
2022/01/13 03:26:05;;;;;;;25.57;8.40;;;;;;;-10.89;90.32;144980.13;1778864;80;21940;-61
2022/01/13 03:28:39;;;;;;;16.20;6.90;;;;;;;-10.89;90.15;144981.38;1780268;80;20918;-61
2022/01/13 03:31:01;;;;;;;20.63;8.40;;;;;;;-10.87;90.09;144985.22;1768341;80;21612;-62
2022/01/13 03:33:29;;;;;;;21.10;6.70;;;;;;;-10.87;89.98;144986.47;1782653;79;21403;-62
2022/01/13 03:35:56;;;;;;;17.20;6.07;;;;;;;-10.85;89.84;144990.31;1782270;79;21823;-61
2022/01/13 03:38:23;;;;;;;15.47;5.23;;;;;;;-10.85;89.64;144990.31;1782306;80;21161;-62
2022/01/13 03:40:50;;;;;;;42.40;13.80;;;;;;;-10.85;89.49;144990.31;1754672;80;21044;-61
2022/01/13 03:43:17;;;;;;;20.03;7.93;;;;;;;-10.85;89.51;144990.31;1784121;80;21580;-57
2022/01/13 03:45:45;;;;;;;31.83;8.77;;;;;;;-10.85;89.46;144990.31;1784017;80;21345;-57
2022/01/13 03:48:13;;;;;;;18.30;5.57;;;;;;;-10.84;89.36;144992.86;1782693;80;21067;-57
2022/01/13 03:50:42;;;;;;;21.50;6.70;;;;;;;-10.85;89.18;144990.31;1778948;80;21968;-62
2022/01/13 03:53:33;;;;;;;17.07;7.07;;;;;;;-10.85;89.20;144990.31;1779136;79;21060;-57
2022/01/13 03:56:36;;;;;;;17.80;6.17;;;;;;;-10.85;89.12;144990.31;1779073;80;21071;-58
2022/01/13 03:59:37;;;;;;;18.40;5.60;;;;;;;-10.88;89.08;144982.67;1781700;80;21079;-62
2022/01/13 04:02:09;;;;;;;18.60;6.23;;;;;;;-10.89;89.02;144981.38;1748020;81;21087;-62
2022/01/13 04:04:48;;;;;;;26.63;6.93;;;;;;;-10.91;88.96;144975.03;1785092;79;21134;-57
2022/01/13 04:07:23;;;;;;;20.97;7.30;;;;;;;-10.94;88.90;144969.94;1785858;79;21423;-61
2022/01/13 04:09:55;;;;;;;18.37;6.83;;;;;;;-10.95;88.88;144967.34;1765700;80;21075;-61
2022/01/13 04:12:25;;;;;;;17.87;6.70;;;;;;;-10.97;88.88;144962.25;1785813;79;21056;-61
2022/01/13 04:14:55;;;;;;;12.40;5.50;;;;;;;-10.99;88.92;144957.16;1785425;79;21051;-61
2022/01/13 04:17:22;;;;;;;35.07;11.17;;;;;;;-10.99;88.94;144957.16;1803590;78;21120;-57
2022/01/13 04:19:49;;;;;;;23.70;5.20;;;;;;;-10.99;89.08;144957.16;1792364;78;20988;-58
2022/01/13 04:22:17;;;;;;;21.57;8.27;;;;;;;-11.00;89.10;144954.61;1777769;79;21055;-63
2022/01/13 04:24:47;;;;;;;25.00;9.73;;;;;;;-11.00;89.13;144953.36;1777767;80;21039;-62
2022/01/13 04:27:32;;;;;;;25.87;8.20;;;;;;;-11.02;89.21;144949.52;1778893;80;21547;-62
2022/01/13 04:32:39;;;;;;;20.93;6.73;;;;;;;-11.00;89.25;144953.36;1723736;79;21031;-57
2022/01/13 04:35:08;;;;;;;29.17;9.17;;;;;;;-11.01;89.32;144952.06;1762327;80;21064;-61
2022/01/13 04:37:35;;;;;;;26.23;7.73;;;;;;;-11.03;89.36;144946.97;1779656;79;21044;-62
2022/01/13 04:40:03;;;;;;;19.13;6.83;;;;;;;-11.02;89.40;144948.27;1781502;80;20995;-61
2022/01/13 04:42:35;;;;;;;27.17;8.00;;;;;;;-11.02;89.52;144949.52;1779040;80;21148;-61
2022/01/13 04:44:59;;;;;;;26.60;10.07;;;;;;;-11.02;89.48;144949.52;1778053;80;21051;-62
2022/01/13 04:47:26;;;;;;;33.60;10.80;;;;;;;-11.02;89.39;144949.52;1779242;80;21010;-61
2022/01/13 04:49:53;;;;;;;38.33;12.33;;;;;;;-11.01;89.38;144952.06;1782595;80;21024;-57
2022/01/13 04:52:20;;;;;;;47.83;15.27;;;;;;;-11.00;89.44;144954.61;1747775;81;21011;-58
2022/01/13 04:54:47;;;;;;;37.90;13.00;;;;;;;-10.99;89.36;144957.16;1784495;79;21084;-60
2022/01/13 04:57:17;;;;;;;35.87;12.47;;;;;;;-10.98;89.37;144959.70;1785496;79;21032;-62
2022/01/13 04:59:45;;;;;;;55.90;15.50;;;;;;;-10.98;89.41;144959.70;1745582;81;21462;-63
2022/01/13 05:02:12;;;;;;;41.33;12.93;;;;;;;-10.99;89.44;144957.16;1779487;79;21055;-57
2022/01/13 05:04:40;;;;;;;28.13;9.17;;;;;;;-11.00;89.50;144954.61;1778534;80;21061;-57
2022/01/13 05:07:07;;;;;;;35.10;9.77;;;;;;;-11.01;89.50;144952.06;1778873;80;21105;-58
2022/01/13 05:09:34;;;;;;;27.37;8.67;;;;;;;-11.01;89.59;144952.06;1781132;80;21012;-58
2022/01/13 05:12:02;;;;;;;24.77;9.17;;;;;;;-11.04;89.55;144944.42;1751126;80;21670;-59
2022/01/13 05:14:31;;;;;;;16.00;6.53;;;;;;;-11.04;89.52;144943.17;1784732;79;21080;-56
2022/01/13 05:17:09;;;;;;;21.67;8.10;;;;;;;-11.09;89.50;144931.69;1785129;79;21446;-57
2022/01/13 05:19:40;;;;;;;23.40;7.43;;;;;;;-11.09;89.53;144932.94;1779857;80;21799;-58
2022/01/13 05:24:40;;;;;;;19.37;7.20;;;;;;;-11.13;89.40;144921.50;1753249;81;21024;-59
2022/01/13 05:27:08;;;;;;;20.03;7.10;;;;;;;-11.16;89.30;144913.81;1753613;81;21115;-58
2022/01/13 05:29:35;;;;;;;22.23;7.53;;;;;;;-11.15;89.21;144916.41;1771797;80;21016;-60
2022/01/13 05:32:04;;;;;;;19.57;6.77;;;;;;;-11.16;89.12;144913.81;1751582;80;21121;-59
2022/01/13 05:34:31;;;;;;;23.07;5.97;;;;;;;-11.16;89.06;144913.81;1747610;80;20925;-58
2022/01/13 05:36:59;;;;;;;19.83;7.10;;;;;;;-11.19;88.93;144907.47;1784509;80;21048;-57
2022/01/13 05:39:26;;;;;;;21.90;7.70;;;;;;;-11.22;88.87;144901.08;1784115;80;21056;-61
2022/01/13 05:41:53;;;;;;;23.50;8.07;;;;;;;-11.23;88.74;144898.53;1778608;80;21000;-61
2022/01/13 05:44:20;;;;;;;28.70;9.10;;;;;;;-11.25;88.74;144893.44;1778973;80;22031;-57
2022/01/13 05:46:47;;;;;;;26.63;8.20;;;;;;;-11.25;88.67;144893.44;1757216;80;21079;-62
2022/01/13 05:49:14;;;;;;;18.83;6.20;;;;;;;-11.24;88.52;144894.73;1779879;79;21016;-57
2022/01/13 05:51:42;;;;;;;28.57;7.50;;;;;;;-11.27;88.36;144888.34;1767114;80;21036;-62
2022/01/13 05:54:09;;;;;;;27.73;8.90;;;;;;;-11.28;88.32;144885.81;1746793;81;21109;-62
2022/01/13 05:56:36;;;;;;;24.13;8.13;;;;;;;-11.28;88.33;144885.81;1766856;81;21489;-58
2022/01/13 05:59:03;;;;;;;23.83;8.20;;;;;;;-11.25;88.32;144893.44;1766759;81;21092;-57
2022/01/13 06:01:32;;;;;;;18.77;7.73;;;;;;;-11.22;88.32;144901.08;1768321;79;21035;-61
2022/01/13 06:03:59;;;;;;;22.77;7.00;;;;;;;-11.17;88.32;144912.56;1767136;81;21386;-62
2022/01/13 06:06:26;;;;;;;22.77;7.60;;;;;;;-11.10;88.22;144930.39;1767333;81;20984;-62
2022/01/13 06:08:53;;;;;;;19.33;7.40;;;;;;;-11.05;88.07;144941.88;1766665;81;21117;-62
2022/01/13 06:11:22;;;;;;;19.60;7.97;;;;;;;-11.01;87.89;144952.06;1768606;81;20994;-61
2022/01/13 06:13:49;;;;;;;19.70;7.63;;;;;;;-10.99;87.71;144957.16;1736248;82;21048;-62
2022/01/13 06:16:19;;;;;;;25.03;8.80;;;;;;;-10.93;87.61;144971.19;1720322;82;21046;-61
2022/01/13 06:18:46;;;;;;;23.70;8.10;;;;;;;-10.87;87.65;144985.22;1749682;81;21120;-59
2022/01/13 06:21:15;;;;;;;22.73;8.40;;;;;;;-10.80;87.54;145003.05;1740370;81;21518;-62
2022/01/13 06:23:42;;;;;;;19.73;6.80;;;;;;;-10.73;87.31;145020.87;1735929;82;21025;-62
2022/01/13 06:26:10;;;;;;;23.73;8.97;;;;;;;-10.70;86.69;145027.28;1730630;82;21377;-58
2022/01/13 06:28:36;;;;;;;23.43;7.57;;;;;;;-10.71;86.41;145024.72;1732269;82;21029;-62
2022/01/13 06:31:03;;;;;;;28.67;9.23;;;;;;;-10.71;86.40;145026.03;1731419;82;21273;-61
2022/01/13 06:33:31;;;;;;;21.00;8.73;;;;;;;-10.71;86.36;145026.03;1734058;82;21138;-62
2022/01/13 06:35:58;;;;;;;26.30;9.47;;;;;;;-10.71;86.58;145024.72;1736196;82;21097;-62
2022/01/13 06:38:25;;;;;;;23.90;9.40;;;;;;;-10.69;86.64;145031.13;1734266;81;21036;-63
2022/01/13 06:40:52;;;;;;;24.33;8.93;;;;;;;-10.66;86.71;145038.77;1730329;82;21071;-59
2022/01/13 06:43:20;;;;;;;33.30;11.57;;;;;;;-10.61;86.83;145048.95;1719109;82;21442;-63
2022/01/13 06:45:47;;;;;;;27.87;9.00;;;;;;;-10.56;86.95;145062.98;1692469;84;21245;-58
2022/01/13 06:48:14;;;;;;;39.57;12.30;;;;;;;-10.47;87.10;145083.38;1730849;81;21087;-62
2022/01/13 06:50:41;;;;;;;39.47;15.50;;;;;;;-10.42;87.25;145097.41;1773354;79;21114;-63
2022/01/13 06:53:08;;;;;;;32.67;11.70;;;;;;;-10.36;87.26;145111.41;1775309;79;21913;-63
2022/01/13 06:55:36;;;;;;;37.30;14.13;;;;;;;-10.28;87.32;145130.50;1769037;80;21490;-58
2022/01/13 06:58:04;;;;;;;34.27;12.03;;;;;;;-10.26;87.26;145136.89;1733244;82;21053;-62
2022/01/13 07:00:33;;;;;;;33.77;11.50;;;;;;;-10.19;87.36;145153.47;1719092;83;20951;-63
2022/01/13 07:03:03;;;;;;;37.83;12.50;;;;;;;-10.13;87.39;145168.77;1725273;83;21466;-62
2022/01/13 07:05:33;;;;;;;39.20;12.03;;;;;;;-10.07;87.37;145182.81;1728440;82;21073;-61
2022/01/13 07:08:01;;;;;;;41.50;14.13;;;;;;;-10.00;87.42;145199.41;1718152;81;21125;-62
2022/01/13 07:10:28;;;;;;;27.57;8.67;;;;;;;-9.96;87.33;145209.59;1724308;80;21803;-62
2022/01/13 07:12:54;;;;;;;34.97;11.93;;;;;;;-9.91;87.10;145222.34;1733055;80;21466;-59
2022/01/13 07:15:22;;;;;;;27.40;8.73;;;;;;;-9.83;87.36;145242.78;1739786;81;21130;-57
2022/01/13 07:17:49;;;;;;;65.67;19.93;;;;;;;-9.79;87.11;145252.98;1735858;81;21049;-58
2022/01/13 07:20:16;;;;;;;201.00;68.00;;;;;;;-9.74;87.22;145263.19;1713819;82;21111;-59
2022/01/13 07:22:42;;;;;;;171.37;52.23;;;;;;;-9.69;87.18;145275.94;1718068;82;21371;-57
2022/01/13 07:25:10;;;;;;;116.97;37.87;;;;;;;-9.64;86.81;145288.69;1704151;83;21107;-57
2022/01/13 07:27:37;;;;;;;181.60;52.17;;;;;;;-9.61;86.66;145296.39;1715729;82;21073;-59
2022/01/13 07:30:08;;;;;;;229.43;71.50;;;;;;;-9.61;86.36;145296.39;1707230;82;21111;-59
2022/01/13 07:32:35;;;;;;;175.30;60.40;;;;;;;-9.59;86.55;145300.19;1707412;82;21018;-59
2022/01/13 07:35:02;;;;;;;71.60;25.97;;;;;;;-9.54;86.77;145314.23;1704257;82;21088;-59
2022/01/13 07:37:29;;;;;;;44.23;13.80;;;;;;;-9.43;86.81;145339.73;1768269;79;21020;-58
2022/01/13 07:39:56;;;;;;;43.67;15.60;;;;;;;-9.35;86.81;145360.19;1768787;79;21038;-59
2022/01/13 07:42:26;;;;;;;31.23;12.13;;;;;;;-9.24;86.86;145388.25;1771096;79;21542;-57
2022/01/13 07:44:53;;;;;;;28.77;9.90;;;;;;;-9.16;86.53;145407.41;1769585;79;21056;-58
2022/01/13 07:47:20;;;;;;;34.70;11.47;;;;;;;-9.09;86.41;145424.02;1769416;79;21107;-58
2022/01/13 07:49:47;;;;;;;33.33;12.97;;;;;;;-9.01;86.55;145443.17;1768944;79;21573;-58
2022/01/13 07:52:14;;;;;;;124.80;41.67;;;;;;;-8.94;86.01;145462.33;1766669;79;21076;-62
2022/01/13 07:54:41;;;;;;;109.00;37.20;;;;;;;-8.87;86.12;145477.64;1769439;79;21092;-61
2022/01/13 07:57:08;;;;;;;70.03;24.70;;;;;;;-8.76;86.22;145505.72;1768552;79;21061;-62
2022/01/13 07:59:34;;;;;;;140.50;45.60;;;;;;;-8.68;86.09;145524.88;1769404;79;21557;-62
2022/01/13 08:02:01;;;;;;;64.20;23.40;;;;;;;-8.59;85.94;145546.59;1768232;79;21087;-62
2022/01/13 08:04:30;;;;;;;44.33;13.47;;;;;;;-8.52;85.98;145565.77;1768614;79;21147;-58
2022/01/13 08:06:59;;;;;;;72.97;25.50;;;;;;;-8.40;85.63;145593.80;1768373;79;21049;-58
2022/01/13 08:09:26;;;;;;;53.37;19.47;;;;;;;-8.34;85.60;145610.42;1772823;79;21059;-58
2022/01/13 08:11:53;;;;;;;26.03;9.03;;;;;;;-8.23;85.81;145636.00;1768875;79;21597;-58
2022/01/13 08:14:20;;;;;;;21.43;6.47;;;;;;;-8.14;85.33;145658.98;1770273;79;21021;-58
2022/01/13 08:16:49;;;;;;;23.93;8.20;;;;;;;-8.11;85.06;145666.64;1767068;79;21103;-59
2022/01/13 08:22:01;;;;;;;142.23;47.67;;;;;;;-8.00;84.64;145693.47;1768541;79;21533;-63
2022/01/13 08:24:28;;;;;;;66.90;20.80;;;;;;;-7.94;84.64;145707.55;1772471;79;21589;-63
2022/01/13 08:26:54;;;;;;;55.37;18.60;;;;;;;-7.87;84.90;145725.42;1773451;79;21048;-63
2022/01/13 08:29:21;;;;;;;41.90;13.93;;;;;;;-7.75;85.05;145753.56;1773539;79;21084;-63
2022/01/13 08:31:48;;;;;;;65.20;23.67;;;;;;;-7.63;85.21;145784.22;1765611;79;21062;-64
2022/01/13 08:34:16;;;;;;;45.90;16.27;;;;;;;-7.52;84.72;145812.38;1769987;79;21075;-63
2022/01/13 08:36:43;;;;;;;42.07;13.90;;;;;;;-7.41;84.76;145837.92;1768500;79;21084;-62
2022/01/13 08:39:10;;;;;;;99.53;33.23;;;;;;;-7.30;84.36;145866.09;1767203;79;21064;-63
2022/01/13 08:41:38;;;;;;;44.07;15.77;;;;;;;-7.22;83.98;145885.28;1773669;79;21104;-61
2022/01/13 08:44:05;;;;;;;35.40;10.97;;;;;;;-7.11;83.92;145913.39;1769705;79;21638;-62
2022/01/13 08:46:33;;;;;;;24.37;8.70;;;;;;;-7.01;83.43;145937.69;1768429;79;21088;-62
2022/01/13 08:49:02;;;;;;;21.23;7.63;;;;;;;-6.95;82.65;145951.78;1773684;79;21101;-62
2022/01/13 08:51:29;;;;;;;35.63;12.97;;;;;;;-6.91;82.06;145962.00;1770340;78;21047;-61
2022/01/13 08:53:56;;;;;;;143.40;51.60;;;;;;;-6.88;81.95;145968.42;1775331;79;21098;-62
2022/01/13 08:56:23;;;;;;;95.33;31.00;;;;;;;-6.83;81.96;145981.20;1781267;78;21289;-63
2022/01/13 08:58:50;;;;;;;30.97;11.10;;;;;;;-6.76;81.54;145999.09;1764099;79;21090;-62
2022/01/13 09:01:17;;;;;;;26.20;9.70;;;;;;;-6.72;81.41;146008.06;1775924;78;21525;-62
2022/01/13 09:03:44;;;;;;;174.90;63.23;;;;;;;-6.64;81.79;146029.83;1766204;79;21532;-59
2022/01/13 09:06:11;;;;;;;63.67;22.70;;;;;;;-6.53;81.40;146056.70;1769297;79;21078;-59
2022/01/13 09:08:41;;;;;;;76.10;26.87;;;;;;;-6.45;80.73;146075.91;1760415;78;21075;-60
2022/01/13 09:11:07;;;;;;;26.20;10.13;;;;;;;-6.42;80.23;146083.58;1778162;78;21019;-57
2022/01/13 09:13:37;;;;;;;24.43;8.83;;;;;;;-6.36;80.59;146097.66;1772331;78;21210;-58
2022/01/13 09:16:13;;;;;;;21.37;7.90;;;;;;;-6.24;80.82;146128.36;1771370;79;21133;-59
2022/01/13 09:18:58;;;;;;;17.97;7.80;;;;;;;-6.11;80.32;146160.36;1774593;78;21007;-59
2022/01/13 09:21:03;;;;;;;35.53;13.77;;;;;;;-5.97;80.04;146193.63;1767069;79;21063;-58
2022/01/13 09:23:33;;;;;;;20.07;7.33;;;;;;;-5.90;79.47;146212.83;1767030;78;21118;-58
2022/01/13 09:25:59;;;;;;;72.80;27.57;;;;;;;-5.83;78.89;146228.19;1775987;79;21272;-60
2022/01/13 09:28:26;;;;;;;64.73;25.80;;;;;;;-5.80;77.41;146237.16;1776504;79;21051;-61
2022/01/13 09:30:52;;;;;;;28.53;10.03;;;;;;;-5.79;76.61;146239.72;1780491;78;21757;-59
2022/01/13 09:33:21;;;;;;;18.67;6.93;;;;;;;-5.73;76.23;146252.52;1785970;78;21059;-58
2022/01/13 09:35:48;;;;;;;16.73;6.53;;;;;;;-5.70;75.69;146261.50;1775463;78;21130;-58
2022/01/13 09:38:14;;;;;;;25.27;8.00;;;;;;;-5.64;75.47;146276.84;1781182;78;22310;-58
2022/01/13 09:40:42;;;;;;;21.27;6.30;;;;;;;-5.60;75.22;146285.84;1778467;79;21027;-61
2022/01/13 09:43:11;;;;;;;13.00;5.30;;;;;;;-5.55;75.21;146297.33;1781824;78;21023;-62
2022/01/13 09:45:38;;;;;;;14.10;5.87;;;;;;;-5.50;74.35;146310.17;1786049;78;21039;-62
2022/01/13 09:48:05;;;;;;;13.20;5.73;;;;;;;-5.43;74.42;146326.78;1777983;79;21733;-62
2022/01/13 09:50:33;;;;;;;13.83;6.00;;;;;;;-5.39;74.21;146338.33;1778756;78;21420;-62
2022/01/13 09:52:59;;;;;;;12.80;5.87;;;;;;;-5.36;73.33;146344.75;1778480;78;21560;-62
2022/01/13 09:55:26;;;;;;;11.83;5.40;;;;;;;-5.31;72.85;146357.56;1781957;78;21060;-63
2022/01/13 09:57:56;;;;;;;16.40;5.70;;;;;;;-5.26;72.20;146369.09;1744318;80;21401;-62
2022/01/13 10:00:24;;;;;;;15.03;6.07;;;;;;;-5.23;71.49;146376.78;1781612;78;21083;-64
2022/01/13 10:02:53;;;;;;;18.40;6.83;;;;;;;-5.19;71.06;146388.33;1782826;79;21792;-62
2022/01/13 10:05:20;;;;;;;19.63;6.17;;;;;;;-5.14;70.94;146398.56;1782562;78;21512;-61
2022/01/13 10:07:51;;;;;;;16.73;5.50;;;;;;;-5.09;70.67;146412.63;1781337;78;21255;-62
2022/01/13 10:10:24;;;;;;;19.57;5.83;;;;;;;-5.02;69.15;146429.28;1780967;78;21079;-62
2022/01/13 10:13:11;;;;;;;20.73;6.63;;;;;;;-5.00;67.83;146433.16;1783643;79;21012;-62
2022/01/13 10:18:44;;;;;;;21.07;5.65;;;;;;;-4.91;67.81;146456.20;1742077;80;21127;-62
2022/01/13 10:21:17;;;;;;;15.70;6.97;;;;;;;-4.91;67.10;146456.20;1738423;80;21745;-63
2022/01/13 10:24:13;;;;;;;20.50;8.00;;;;;;;-4.90;67.38;146460.06;1783729;79;21032;-62
2022/01/13 10:26:43;;;;;;;22.37;8.00;;;;;;;-4.89;67.75;146462.62;1781442;78;21869;-64
2022/01/13 10:29:09;;;;;;;22.80;8.43;;;;;;;-4.85;68.00;146470.31;1778366;78;21627;-62
2022/01/13 10:31:47;;;;;;;20.80;7.70;;;;;;;-4.81;68.11;146480.56;1780292;79;21100;-62
2022/01/13 10:34:20;;;;;;;16.37;7.10;;;;;;;-4.77;67.86;146490.80;1786098;79;21000;-62
2022/01/13 10:37:23;;;;;;;20.03;6.63;;;;;;;-4.68;67.58;146512.59;1783894;79;21068;-63
2022/01/13 10:40:01;;;;;;;29.23;8.10;;;;;;;-4.61;66.54;146531.83;1782664;78;21071;-62
2022/01/13 10:43:06;;;;;;;21.13;8.27;;;;;;;-4.60;65.80;146533.14;1781893;78;21522;-63
2022/01/13 10:45:35;;;;;;;20.20;7.03;;;;;;;-4.53;66.21;146549.77;1769768;78;21172;-63
2022/01/13 10:48:06;;;;;;;26.87;8.63;;;;;;;-4.42;65.23;146578.00;1785290;78;21030;-62
2022/01/13 10:50:43;;;;;;;24.30;9.20;;;;;;;-4.39;64.85;146585.69;1779810;78;21133;-62
2022/01/13 10:53:14;;;;;;;36.77;10.30;;;;;;;-4.37;65.37;146590.81;1769955;79;21576;-62
2022/01/13 10:55:45;;;;;;;26.47;10.43;;;;;;;-4.36;65.72;146593.37;1772772;79;20944;-63
2022/01/13 10:58:13;;;;;;;23.17;10.20;;;;;;;-4.31;66.07;146604.92;1768837;79;21623;-62
2022/01/13 11:00:41;;;;;;;31.00;11.90;;;;;;;-4.28;66.46;146612.61;1766342;79;21011;-63
2022/01/13 11:03:17;;;;;;;21.13;9.93;;;;;;;-4.23;67.00;146624.16;1766849;79;21044;-63
2022/01/13 11:05:52;;;;;;;26.87;10.83;;;;;;;-4.14;66.80;146647.22;1766853;79;21104;-67
2022/01/13 11:08:33;;;;;;;23.70;10.03;;;;;;;-4.09;65.91;146660.08;1767579;79;21676;-62
2022/01/13 11:11:01;;;;;;;26.30;11.10;;;;;;;-4.12;64.87;146651.09;1774136;79;21672;-64
2022/01/13 11:13:33;;;;;;;27.10;11.80;;;;;;;-4.18;65.35;146638.28;1754022;79;21347;-62
2022/01/13 11:15:58;;;;;;;28.50;11.07;;;;;;;-4.15;66.03;146644.66;1769268;79;20967;-62
2022/01/13 11:18:28;;;;;;;26.13;11.57;;;;;;;-4.12;66.27;146652.34;1768680;79;21112;-62
2022/01/13 11:20:55;;;;;;;31.80;12.57;;;;;;;-4.12;66.53;146652.34;1771112;79;21087;-63
2022/01/13 11:23:22;;;;;;;31.90;13.03;;;;;;;-4.10;66.63;146657.47;1767662;79;21081;-62
2022/01/13 11:25:52;;;;;;;27.00;11.50;;;;;;;-4.09;66.75;146660.08;1775535;79;21462;-63
2022/01/13 11:28:19;;;;;;;32.07;12.37;;;;;;;-4.06;67.36;146667.78;1769288;79;21171;-62
2022/01/13 11:30:47;;;;;;;37.87;14.80;;;;;;;-4.03;67.40;146675.47;1746694;79;21013;-62
2022/01/13 11:33:14;;;;;;;34.17;13.07;;;;;;;-4.05;67.69;146670.34;1770038;79;21186;-62
2022/01/13 11:35:45;;;;;;;26.03;12.43;;;;;;;-4.05;68.25;146670.34;1775203;79;21112;-63
2022/01/13 11:38:13;;;;;;;27.60;13.77;;;;;;;-4.04;68.52;146672.91;1771487;79;21056;-64
2022/01/13 11:40:43;;;;;;;30.60;13.63;;;;;;;-4.00;68.86;146681.84;1770635;79;21541;-64
2022/01/13 11:43:27;;;;;;;39.40;14.43;;;;;;;-3.95;69.12;146693.41;1766002;79;21056;-63
2022/01/13 11:45:54;;;;;;;33.17;14.73;;;;;;;-3.88;69.35;146711.34;1758354;79;21114;-64
2022/01/13 11:48:25;;;;;;;27.03;12.73;;;;;;;-3.77;69.37;146739.59;1768169;79;21652;-64